Time;durP1;ratioP1;P1;durP2;ratioP2;P2;SDS_P1;SDS_P2;PMS_P1;PMS_P2;Temp;Humidity;BMP_temperature;BMP_pressure;BME280_temperature;BME280_humidity;BME280_pressure;Samples;Min_cycle;Max_cycle;Signal;HPM_P1;HPM_P2
2022/11/10 00:00:25;;;;;;;8.85;7.95;;;;;;;17.43;100.00;96623.41;5098618;28;20067;-50
2022/11/10 00:02:53;;;;;;;9.70;8.02;;;;;;;18.14;100.00;96620.25;5101924;28;20071;-46
2022/11/10 00:05:21;;;;;;;11.32;8.38;;;;;;;18.51;100.00;96624.53;5101157;28;20615;-46
2022/11/10 00:07:50;;;;;;;8.48;7.63;;;;;;;18.15;100.00;96627.22;5101204;28;20090;-42
2022/11/10 00:10:20;;;;;;;10.20;8.27;;;;;;;18.74;100.00;96627.03;5102883;28;20102;-50
2022/11/10 00:12:48;;;;;;;9.05;8.15;;;;;;;18.30;100.00;96636.00;5102635;28;20086;-49
2022/11/10 00:18:04;;;;;;;8.63;7.72;;;;;;;18.31;100.00;96636.88;5101193;28;20083;-46
2022/11/10 00:20:32;;;;;;;9.60;7.05;;;;;;;17.59;100.00;96645.59;5104571;28;20537;-45
2022/11/10 00:23:00;;;;;;;9.55;7.95;;;;;;;17.45;100.00;96644.56;5077234;28;20071;-46
2022/11/10 00:25:32;;;;;;;9.63;7.80;;;;;;;17.82;100.00;96648.16;5104867;28;20087;-49
2022/11/10 00:28:00;;;;;;;9.02;8.13;;;;;;;17.90;100.00;96650.75;5099802;28;20533;-45
2022/11/10 00:30:29;;;;;;;10.30;8.10;;;;;;;17.88;100.00;96656.25;5102905;28;20079;-49
2022/11/10 00:32:57;;;;;;;9.07;7.47;;;;;;;17.53;100.00;96655.13;5098245;28;20086;-46
2022/11/10 00:35:25;;;;;;;9.73;7.45;;;;;;;16.64;100.00;96662.88;5101586;28;20071;-45
2022/11/10 00:37:53;;;;;;;9.40;7.97;;;;;;;17.50;100.00;96668.81;5102515;28;20075;-46
2022/11/10 00:40:22;;;;;;;10.30;7.65;;;;;;;17.65;100.00;96659.00;5101244;28;20473;-42
2022/11/10 00:42:51;;;;;;;8.93;6.95;;;;;;;17.14;100.00;96669.53;5103400;28;20075;-46
2022/11/10 00:45:20;;;;;;;8.98;7.45;;;;;;;17.16;100.00;96669.31;5102452;28;20079;-48
2022/11/10 00:47:48;;;;;;;10.48;8.10;;;;;;;17.54;100.00;96672.78;5095832;28;20492;-47
2022/11/10 00:50:17;;;;;;;11.20;7.88;;;;;;;17.70;100.00;96679.78;5098772;28;20044;-42
2022/11/10 00:52:45;;;;;;;10.40;8.50;;;;;;;17.65;100.00;96676.81;5102431;28;20075;-50
2022/11/10 00:55:14;;;;;;;9.60;8.27;;;;;;;17.60;100.00;96679.22;5098616;28;20076;-48
2022/11/10 00:57:42;;;;;;;9.85;7.93;;;;;;;18.02;100.00;96689.28;5099405;28;20087;-41
2022/11/10 01:00:12;;;;;;;12.82;8.40;;;;;;;17.54;100.00;96691.44;5099462;28;20079;-44
2022/11/10 01:02:41;;;;;;;11.65;8.60;;;;;;;17.45;100.00;96697.88;5093108;28;20075;-43
2022/11/10 01:05:09;;;;;;;12.55;10.02;;;;;;;17.92;100.00;96697.56;5099734;28;20087;-42
2022/11/10 01:07:37;;;;;;;11.27;8.18;;;;;;;17.03;100.00;96694.75;5097469;28;20083;-53
2022/11/10 01:10:07;;;;;;;10.30;8.70;;;;;;;17.59;100.00;96697.06;5101766;28;20098;-46
2022/11/10 01:12:35;;;;;;;11.52;8.13;;;;;;;17.00;100.00;96691.63;5102102;28;20083;-48
2022/11/10 01:15:04;;;;;;;7.97;5.95;;;;;;;16.63;100.00;96697.69;5100439;28;20193;-48
2022/11/10 01:17:34;;;;;;;7.30;5.82;;;;;;;16.99;100.00;96695.28;5099653;28;20086;-47
2022/11/10 01:20:02;;;;;;;9.30;6.03;;;;;;;17.08;100.00;96699.53;5101812;28;20088;-42
2022/11/10 01:22:31;;;;;;;7.35;6.10;;;;;;;17.21;100.00;96704.28;5101814;28;20974;-41
2022/11/10 01:24:59;;;;;;;8.63;6.47;;;;;;;17.60;100.00;96697.91;5101633;28;20093;-48
2022/11/10 01:27:27;;;;;;;8.73;6.18;;;;;;;17.00;100.00;96703.13;5096075;28;20079;-46
2022/11/10 01:29:56;;;;;;;8.25;6.68;;;;;;;17.29;100.00;96705.00;5102043;28;20080;-46
2022/11/10 01:32:24;;;;;;;8.38;6.45;;;;;;;17.62;100.00;96707.38;5099865;28;20086;-45
2022/11/10 01:34:56;;;;;;;8.10;6.60;;;;;;;18.04;100.00;96705.94;5096808;28;20086;-51
2022/11/10 01:37:24;;;;;;;9.35;6.97;;;;;;;17.38;100.00;96710.25;5099509;28;20083;-45
2022/11/10 01:39:53;;;;;;;8.13;6.80;;;;;;;18.12;100.00;96707.66;5098643;28;20471;-49
2022/11/10 01:42:26;;;;;;;10.38;7.68;;;;;;;18.39;100.00;96703.50;5096723;28;20079;-45
2022/11/10 01:45:39;;;;;;;11.43;8.48;;;;;;;17.78;100.00;96712.53;5096955;28;20489;-44
2022/11/10 01:48:10;;;;;;;9.52;7.60;;;;;;;17.72;100.00;96713.28;5099426;28;20071;-45
2022/11/10 01:50:40;;;;;;;12.35;8.77;;;;;;;17.93;100.00;96717.09;5101092;28;20091;-46
2022/11/10 01:53:09;;;;;;;;;;;;;;;17.95;100.00;96717.72;5099456;28;20083;-49
2022/11/10 01:55:39;;;;;;;10.25;7.35;;;;;;;17.45;100.00;96716.56;5102573;28;19951;-42
2022/11/10 01:58:07;;;;;;;10.50;7.88;;;;;;;17.76;100.00;96719.09;5094284;28;20090;-51
2022/11/10 02:00:36;;;;;;;9.15;7.00;;;;;;;17.43;100.00;96724.72;5095781;28;20071;-47
2022/11/10 02:03:08;;;;;;;9.75;7.20;;;;;;;17.63;100.00;96732.22;5097992;28;20071;-47
2022/11/10 02:05:37;;;;;;;10.05;7.55;;;;;;;17.33;100.00;96729.47;5097243;28;20540;-45
2022/11/10 02:08:07;;;;;;;11.15;9.25;;;;;;;17.99;100.00;96732.34;5099966;28;20075;-45
2022/11/10 02:10:36;;;;;;;12.98;9.88;;;;;;;17.73;100.00;96735.44;5098582;28;20083;-45
2022/11/10 02:13:04;;;;;;;16.60;10.73;;;;;;;17.86;100.00;96740.16;5096487;28;20094;-51
2022/11/10 02:15:32;;;;;;;13.85;10.13;;;;;;;17.56;100.00;96735.59;5099384;28;20497;-46
2022/11/10 02:18:01;;;;;;;15.70;10.73;;;;;;;18.34;100.00;96732.56;5099071;28;20090;-42
2022/11/10 02:20:29;;;;;;;13.75;10.40;;;;;;;18.43;100.00;96740.31;5100399;28;20083;-48
2022/11/10 02:22:59;;;;;;;13.57;9.93;;;;;;;18.52;100.00;96742.88;5099421;28;20083;-42
2022/11/10 02:25:30;;;;;;;11.43;8.73;;;;;;;17.99;100.00;96748.34;5097211;28;20078;-47
2022/11/10 02:27:58;;;;;;;5.32;3.40;;;;;;;17.07;100.00;96753.84;5097209;28;20513;-44
2022/11/10 02:30:27;;;;;;;3.97;2.92;;;;;;;16.94;100.00;96756.28;5098373;28;20079;-50
2022/11/10 02:32:55;;;;;;;3.22;2.70;;;;;;;17.69;100.00;96753.66;5101073;28;20078;-47
2022/11/10 02:35:23;;;;;;;4.60;2.80;;;;;;;17.93;100.00;96751.78;5097644;28;20091;-47
2022/11/10 02:37:52;;;;;;;2.80;2.50;;;;;;;17.78;100.00;96763.22;5097718;28;20075;-44
2022/11/10 02:40:22;;;;;;;4.10;2.40;;;;;;;17.90;100.00;96752.13;5097889;28;20083;-45
2022/11/10 02:42:50;;;;;;;2.80;2.23;;;;;;;17.88;100.00;96762.16;5098307;28;20084;-45
2022/11/10 02:45:18;;;;;;;3.30;2.33;;;;;;;17.98;100.00;96765.38;5097640;28;20492;-48
2022/11/10 02:47:46;;;;;;;3.13;2.35;;;;;;;18.30;100.00;96768.69;5098871;28;20083;-44
2022/11/10 02:50:16;;;;;;;2.63;2.10;;;;;;;18.09;100.00;96766.75;5097945;28;20597;-48
2022/11/10 02:52:44;;;;;;;3.25;2.05;;;;;;;18.20;100.00;96774.28;5097600;28;20090;-52
2022/11/10 02:55:12;;;;;;;2.45;1.85;;;;;;;18.29;100.00;96780.38;5099421;28;20086;-47
2022/11/10 02:57:42;;;;;;;4.28;2.00;;;;;;;18.09;100.00;96778.25;5098352;28;20079;-47
2022/11/10 03:00:12;;;;;;;3.40;1.70;;;;;;;18.14;100.00;96778.56;5101182;28;20083;-46
2022/11/10 03:02:40;;;;;;;3.33;2.03;;;;;;;17.61;100.00;96777.72;5101904;28;20083;-42
2022/11/10 03:05:09;;;;;;;2.13;1.92;;;;;;;18.42;100.00;96777.88;5100591;28;20086;-48
2022/11/10 03:07:37;;;;;;;3.67;2.10;;;;;;;18.15;100.00;96788.19;5099491;28;20486;-45
2022/11/10 03:10:06;;;;;;;4.30;2.08;;;;;;;17.86;100.00;96788.16;5096733;28;20453;-48
2022/11/10 03:12:35;;;;;;;6.93;2.00;;;;;;;17.92;100.00;96800.78;5095736;28;20071;-44
2022/11/10 03:15:05;;;;;;;3.15;2.15;;;;;;;18.09;100.00;96812.94;5095402;28;20044;-47
2022/11/10 03:17:33;;;;;;;7.70;2.05;;;;;;;18.33;100.00;96811.84;5095466;28;20079;-47
2022/11/10 03:20:02;;;;;;;2.67;2.10;;;;;;;18.47;100.00;96813.69;5101883;28;20155;-46
2022/11/10 03:22:30;;;;;;;3.92;2.10;;;;;;;18.38;100.00;96812.16;5096252;28;20082;-48
2022/11/10 03:24:59;;;;;;;3.38;2.30;;;;;;;18.56;100.00;96817.09;5100866;28;20087;-44
2022/11/10 03:27:27;;;;;;;3.78;2.00;;;;;;;18.16;100.00;96824.56;5100241;28;20075;-49
2022/11/10 03:29:55;;;;;;;6.00;2.30;;;;;;;18.26;100.00;96832.28;5098083;28;20099;-42
2022/11/10 03:32:25;;;;;;;6.47;2.30;;;;;;;18.29;100.00;96836.44;5094902;28;20738;-43
2022/11/10 03:34:54;;;;;;;4.90;2.37;;;;;;;18.18;100.00;96840.41;5100045;28;20071;-41
2022/11/10 03:37:22;;;;;;;4.60;2.35;;;;;;;18.27;100.00;96841.94;5097523;28;20129;-43
2022/11/10 03:39:50;;;;;;;4.78;2.20;;;;;;;18.19;100.00;96848.22;5100777;28;20086;-51
2022/11/10 03:42:19;;;;;;;4.07;2.83;;;;;;;18.39;100.00;96853.03;5097928;28;20082;-45
2022/11/10 03:44:47;;;;;;;3.88;2.17;;;;;;;18.20;100.00;96855.22;5095154;28;20064;-45
2022/11/10 03:47:16;;;;;;;3.55;2.20;;;;;;;17.92;100.00;96854.16;5104286;28;20036;-43
2022/11/10 03:49:45;;;;;;;5.70;2.25;;;;;;;17.31;100.00;96860.28;5097596;28;20668;-43
2022/11/10 03:52:14;;;;;;;4.63;2.20;;;;;;;17.68;100.00;96865.84;5099049;28;20079;-47
2022/11/10 03:54:42;;;;;;;5.47;2.30;;;;;;;18.52;100.00;96869.25;5096727;28;20072;-43
2022/11/10 03:57:10;;;;;;;4.38;2.20;;;;;;;18.02;100.00;96871.56;5094651;28;20083;-44
2022/11/10 03:59:39;;;;;;;6.70;2.25;;;;;;;17.57;100.00;96880.41;5097483;28;20071;-49
2022/11/10 04:02:07;;;;;;;2.53;2.20;;;;;;;18.73;100.00;96872.00;5101671;28;20526;-44
2022/11/10 04:10:09;;;;;;;5.35;2.80;;;;;;;18.85;100.00;96883.03;5098875;28;20084;-43
2022/11/10 04:15:42;;;;;;;6.10;2.65;;;;;;;18.77;100.00;96883.16;5098653;28;20122;-43
2022/11/10 04:18:23;;;;;;;5.85;3.05;;;;;;;18.83;100.00;96889.63;5098887;28;20076;-43
2022/11/10 04:20:52;;;;;;;2.70;2.33;;;;;;;18.78;100.00;96884.81;5097139;28;20079;-44
2022/11/10 04:23:26;;;;;;;5.47;2.47;;;;;;;18.98;100.00;96890.41;5095052;28;20075;-50
2022/11/10 04:28:39;;;;;;;3.60;2.53;;;;;;;19.04;100.00;96886.16;5085499;28;20082;-48
2022/11/10 04:31:08;;;;;;;5.82;2.90;;;;;;;19.26;100.00;96887.84;5093412;28;20079;-43
2022/11/10 04:33:37;;;;;;;7.10;2.83;;;;;;;19.13;100.00;96896.56;5098298;28;20200;-42
2022/11/10 04:36:06;;;;;;;3.97;3.00;;;;;;;18.69;100.00;96902.75;5095912;28;20102;-43
2022/11/10 04:38:36;;;;;;;5.30;3.05;;;;;;;18.71;100.00;96900.75;5103150;28;20090;-44
2022/11/10 04:41:05;;;;;;;3.33;2.90;;;;;;;18.69;100.00;96913.44;5096350;28;20526;-45
2022/11/10 04:43:33;;;;;;;6.75;3.00;;;;;;;19.25;100.00;96918.31;5097876;28;20078;-45
2022/11/10 04:46:03;;;;;;;6.90;2.90;;;;;;;19.40;100.00;96918.25;5099125;28;20082;-42
2022/11/10 04:48:32;;;;;;;6.35;2.97;;;;;;;19.51;100.00;96916.94;5099951;28;20469;-46
2022/11/10 04:51:04;;;;;;;3.58;3.08;;;;;;;19.27;100.00;96920.78;5096873;28;20066;-42
2022/11/10 04:53:33;;;;;;;6.10;3.22;;;;;;;18.96;100.00;96930.69;5095554;28;20090;-49
2022/11/10 04:56:03;;;;;;;5.68;3.10;;;;;;;18.15;100.00;96927.00;5095998;28;20533;-43
2022/11/10 04:58:31;;;;;;;6.32;3.20;;;;;;;18.15;100.00;96932.34;5098723;28;20075;-45
2022/11/10 05:01:00;;;;;;;4.57;2.78;;;;;;;18.15;100.00;96943.03;5097746;28;20082;-43
2022/11/10 05:03:28;;;;;;;8.45;2.90;;;;;;;17.45;100.00;96948.53;5099295;28;20109;-48
2022/11/10 05:05:56;;;;;;;6.95;3.30;;;;;;;17.61;100.00;96956.41;5101499;28;20075;-47
2022/11/10 05:08:25;;;;;;;3.45;2.65;;;;;;;17.16;100.00;96960.66;5095413;28;20580;-42
2022/11/10 05:10:53;;;;;;;4.15;2.67;;;;;;;17.05;100.00;96958.38;5097514;28;20083;-47
2022/11/10 05:13:23;;;;;;;3.63;2.70;;;;;;;17.19;100.00;96954.16;5100068;28;20093;-46
2022/11/10 05:15:52;;;;;;;3.88;2.90;;;;;;;17.08;100.00;96956.19;5103037;28;20086;-44
2022/11/10 05:18:20;;;;;;;6.25;3.05;;;;;;;17.71;100.00;96956.19;5098535;28;20094;-45
2022/11/10 05:20:49;;;;;;;4.13;2.95;;;;;;;18.02;100.00;96958.81;5098918;28;20130;-44
2022/11/10 05:26:03;;;;;;;5.03;2.83;;;;;;;18.44;100.00;96957.44;5098136;28;20087;-45
2022/11/10 05:28:33;;;;;;;7.03;3.40;;;;;;;17.45;100.00;96961.84;5096418;28;20083;-48
2022/11/10 05:31:01;;;;;;;6.97;3.33;;;;;;;18.41;100.00;96953.31;5101730;28;20088;-45
2022/11/10 05:33:30;;;;;;;5.85;3.55;;;;;;;18.46;100.00;96969.59;5100397;28;20071;-47
2022/11/10 05:35:58;;;;;;;5.07;3.20;;;;;;;17.67;100.00;96981.53;5096232;28;20521;-44
2022/11/10 05:38:26;;;;;;;4.80;3.17;;;;;;;17.35;100.00;96988.72;5099352;28;20083;-45
2022/11/10 05:40:55;;;;;;;5.53;3.03;;;;;;;17.21;100.00;96998.28;5099531;28;20359;-42
2022/11/10 05:43:24;;;;;;;3.95;3.22;;;;;;;16.72;100.00;96997.56;5093312;28;20075;-49
2022/11/10 05:45:54;;;;;;;6.88;3.38;;;;;;;16.95;100.00;97011.03;5099881;28;20718;-42
2022/11/10 05:48:23;;;;;;;5.20;3.23;;;;;;;16.84;100.00;97004.22;5093891;28;20074;-43
2022/11/10 05:50:51;;;;;;;8.70;3.58;;;;;;;16.96;100.00;97000.19;5099981;28;20500;-46
2022/11/10 05:53:20;;;;;;;8.13;3.58;;;;;;;17.35;100.00;97003.91;5096386;28;20079;-43
2022/11/10 05:55:48;;;;;;;6.70;3.65;;;;;;;17.18;100.00;97011.97;5097507;28;20076;-43
2022/11/10 05:58:17;;;;;;;6.07;3.40;;;;;;;17.37;100.00;97008.03;5102201;28;20453;-44
2022/11/10 06:00:45;;;;;;;4.57;3.55;;;;;;;16.74;100.00;97032.84;5098507;28;20067;-43
2022/11/10 06:03:16;;;;;;;6.15;3.60;;;;;;;16.63;100.00;97031.38;5100894;28;20083;-43
2022/11/10 06:05:45;;;;;;;7.55;3.50;;;;;;;16.58;100.00;97037.19;5101473;28;20082;-45
2022/11/10 06:08:16;;;;;;;5.30;3.70;;;;;;;16.30;100.00;97050.00;5097798;28;20050;-41
2022/11/10 06:10:45;;;;;;;6.80;3.97;;;;;;;16.74;100.00;97043.50;5095593;28;20506;-50
2022/11/10 06:13:13;;;;;;;4.38;3.50;;;;;;;16.30;100.00;97051.84;5098854;28;20111;-50
2022/11/10 06:15:41;;;;;;;6.63;4.00;;;;;;;16.29;100.00;97072.31;5097218;28;20105;-48
2022/11/10 06:18:18;;;;;;;6.15;3.80;;;;;;;16.40;100.00;97072.97;5099885;28;20083;-46
2022/11/10 06:20:47;;;;;;;4.87;3.93;;;;;;;16.25;100.00;97078.16;5092408;28;20474;-48
2022/11/10 06:23:15;;;;;;;5.97;4.13;;;;;;;16.19;100.00;97086.78;5094991;28;20094;-44
2022/11/10 06:25:44;;;;;;;7.35;3.80;;;;;;;16.29;100.00;97096.28;5100945;28;20075;-51
2022/11/10 06:28:13;;;;;;;7.63;4.22;;;;;;;16.27;100.00;97103.56;5098751;28;20087;-47
2022/11/10 06:30:42;;;;;;;6.47;3.97;;;;;;;16.11;100.00;97111.56;5095321;28;20047;-48
2022/11/10 06:33:10;;;;;;;4.45;3.83;;;;;;;16.19;100.00;97111.56;5097358;28;20120;-48
2022/11/10 06:35:40;;;;;;;7.95;4.20;;;;;;;16.23;100.00;97120.88;5093586;28;20086;-46
2022/11/10 06:38:10;;;;;;;6.33;4.00;;;;;;;16.64;100.00;97118.25;5103919;28;20079;-46
2022/11/10 06:40:38;;;;;;;4.28;3.75;;;;;;;16.57;100.00;97123.41;5092326;28;20082;-47
2022/11/10 06:43:07;;;;;;;6.10;4.03;;;;;;;15.96;100.00;97135.28;5094475;28;20071;-46
2022/11/10 06:45:35;;;;;;;7.00;4.03;;;;;;;17.02;100.00;97130.06;5099343;28;20087;-46
2022/11/10 06:48:05;;;;;;;8.55;4.05;;;;;;;17.22;100.00;97127.88;5094628;28;20518;-46
2022/11/10 06:50:34;;;;;;;7.47;4.00;;;;;;;17.32;100.00;97138.38;5101460;28;20086;-47
2022/11/10 06:53:04;;;;;;;6.90;4.30;;;;;;;17.23;100.00;97142.03;5095787;28;20118;-53
2022/11/10 06:55:32;;;;;;;6.50;3.90;;;;;;;16.57;100.00;97154.53;5098532;28;20082;-45
2022/11/10 06:58:01;;;;;;;5.25;3.67;;;;;;;16.39;100.00;97162.66;5092403;28;20071;-43
2022/11/10 07:00:29;;;;;;;6.38;4.13;;;;;;;16.43;100.00;97171.16;5095121;28;20083;-52
2022/11/10 07:03:02;;;;;;;6.90;4.00;;;;;;;16.60;100.00;97176.34;5097914;28;20083;-52
2022/11/10 07:05:32;;;;;;;5.88;4.20;;;;;;;16.63;100.00;97177.00;5102668;28;20098;-44
2022/11/10 07:08:07;;;;;;;6.68;3.65;;;;;;;16.24;100.00;97183.78;5104126;28;20079;-43
2022/11/10 07:10:36;;;;;;;5.13;3.80;;;;;;;16.25;100.00;97182.75;5101567;28;20095;-50
2022/11/10 07:13:05;;;;;;;6.40;3.88;;;;;;;16.20;100.00;97184.22;5103825;28;20501;-44
2022/11/10 07:15:33;;;;;;;6.82;3.80;;;;;;;16.09;100.00;97188.03;5100082;28;20071;-47
2022/11/10 07:18:02;;;;;;;6.78;3.80;;;;;;;16.12;100.00;97188.53;5095717;28;20080;-43
2022/11/10 07:20:31;;;;;;;8.80;4.40;;;;;;;16.22;100.00;97190.25;5099595;28;20146;-42
2022/11/10 07:23:00;;;;;;;4.95;4.05;;;;;;;16.43;100.00;97200.44;5101348;28;20090;-48
2022/11/10 07:25:34;;;;;;;6.38;3.95;;;;;;;16.12;100.00;97204.50;5097641;28;20101;-44
2022/11/10 07:28:04;;;;;;;5.85;3.80;;;;;;;15.86;100.00;97204.59;5094536;28;20086;-42
2022/11/10 07:30:34;;;;;;;7.18;3.80;;;;;;;16.28;100.00;97214.38;5096356;28;20076;-43
2022/11/10 07:33:04;;;;;;;7.80;4.10;;;;;;;16.42;100.00;97215.59;5097166;28;20538;-52
2022/11/10 07:35:34;;;;;;;7.88;4.30;;;;;;;16.12;100.00;97222.31;5099414;28;20090;-45
2022/11/10 07:38:04;;;;;;;4.38;3.70;;;;;;;16.78;100.00;97228.66;5104064;28;20086;-49
2022/11/10 07:40:36;;;;;;;7.28;3.58;;;;;;;16.77;100.00;97224.34;5096033;28;20422;-46
2022/11/10 07:43:04;;;;;;;4.65;3.50;;;;;;;16.21;100.00;97221.34;5105766;28;20557;-44
2022/11/10 07:45:33;;;;;;;5.43;3.80;;;;;;;16.54;100.00;97234.75;5103089;28;20083;-47
2022/11/10 07:48:02;;;;;;;6.80;3.83;;;;;;;16.32;100.00;97242.34;5097566;28;20078;-45
2022/11/10 07:50:32;;;;;;;6.97;3.75;;;;;;;16.56;100.00;97238.91;5102356;28;20801;-51
2022/11/10 07:53:04;;;;;;;5.32;3.90;;;;;;;16.67;100.00;97237.78;5098616;28;20106;-44
2022/11/10 07:55:34;;;;;;;6.53;3.80;;;;;;;17.27;100.00;97240.19;5093845;28;20083;-50
2022/11/10 07:58:03;;;;;;;6.47;4.13;;;;;;;17.24;100.00;97235.19;5098707;28;20083;-44
2022/11/10 08:00:32;;;;;;;5.18;4.25;;;;;;;17.47;100.00;97226.47;5097678;28;20071;-44
2022/11/10 08:03:04;;;;;;;8.00;4.38;;;;;;;17.70;100.00;97237.28;5106888;28;20083;-43
2022/11/10 08:05:32;;;;;;;6.15;3.97;;;;;;;17.34;100.00;97245.66;5099188;28;20114;-42
2022/11/10 08:08:01;;;;;;;4.18;3.55;;;;;;;17.67;100.00;97237.63;5103583;28;20071;-49
2022/11/10 08:10:30;;;;;;;5.35;3.47;;;;;;;17.18;100.00;97262.50;5097132;28;20505;-52
2022/11/10 08:13:02;;;;;;;7.10;3.83;;;;;;;17.23;100.00;97254.00;5093924;28;20099;-50
2022/11/10 08:15:31;;;;;;;5.63;4.00;;;;;;;17.62;100.00;97259.47;5093504;28;20090;-50
2022/11/10 08:18:00;;;;;;;9.50;3.95;;;;;;;17.18;100.00;97262.50;5103631;28;20080;-44
2022/11/10 08:20:29;;;;;;;5.50;3.88;;;;;;;17.75;100.00;97258.94;5100462;28;20047;-49
2022/11/10 08:22:59;;;;;;;5.00;3.90;;;;;;;17.67;100.00;97253.63;5096531;28;20076;-44
2022/11/10 08:25:28;;;;;;;6.43;3.80;;;;;;;17.96;100.00;97253.06;5098868;28;20094;-52
2022/11/10 08:28:05;;;;;;;5.88;3.70;;;;;;;18.23;100.00;97266.00;5093063;28;20079;-44
2022/11/10 08:30:34;;;;;;;7.78;4.10;;;;;;;17.98;100.00;97278.59;5096920;28;20090;-51
2022/11/10 08:33:03;;;;;;;7.97;3.90;;;;;;;17.91;100.00;97274.94;5096399;28;20473;-45
2022/11/10 08:35:35;;;;;;;9.40;4.63;;;;;;;18.54;100.00;97285.72;5098880;28;20079;-49
2022/11/10 08:38:07;;;;;;;;;;;;;;;18.35;100.00;97279.00;5097643;28;20078;-45
2022/11/10 08:40:37;;;;;;;4.50;3.95;;;;;;;18.01;100.00;97286.28;5093688;28;20361;-46
2022/11/10 08:43:07;;;;;;;5.90;4.10;;;;;;;18.32;100.00;97298.03;5100279;28;20083;-46
2022/11/10 08:45:35;;;;;;;6.20;4.40;;;;;;;18.35;100.00;97297.69;5099057;28;20068;-48
2022/11/10 08:48:05;;;;;;;8.73;4.55;;;;;;;18.70;100.00;97294.50;5097513;28;20095;-48
2022/11/10 08:50:34;;;;;;;6.15;4.40;;;;;;;18.60;100.00;97301.91;5099088;28;20537;-41
2022/11/10 08:53:04;;;;;;;7.03;4.75;;;;;;;18.81;100.00;97301.31;5097259;28;20079;-45
2022/11/10 08:55:32;;;;;;;5.90;4.43;;;;;;;19.38;100.00;97311.66;5093603;28;20090;-45
2022/11/10 08:58:02;;;;;;;12.35;5.00;;;;;;;20.05;100.00;97308.22;5098531;28;21731;-46
2022/11/10 09:00:32;;;;;;;6.13;4.80;;;;;;;19.06;100.00;97318.03;5092781;28;20582;-49
2022/11/10 09:03:05;;;;;;;8.85;4.90;;;;;;;19.57;100.00;97323.69;5098385;28;20137;-48
2022/11/10 09:05:34;;;;;;;9.98;4.45;;;;;;;18.98;100.00;97328.78;5095469;28;20120;-43
2022/11/10 09:08:03;;;;;;;7.75;4.32;;;;;;;19.12;100.00;97325.34;5100424;28;20063;-45
2022/11/10 09:10:32;;;;;;;7.22;4.07;;;;;;;19.41;100.00;97329.19;5097701;28;20094;-50
2022/11/10 09:13:01;;;;;;;5.93;3.60;;;;;;;19.70;100.00;97323.13;5096832;28;20079;-45
2022/11/10 09:15:30;;;;;;;6.88;3.67;;;;;;;18.96;100.00;97333.50;5096374;28;20075;-48
2022/11/10 09:18:00;;;;;;;7.55;4.20;;;;;;;19.27;100.00;97337.97;5100086;28;20581;-47
2022/11/10 09:20:30;;;;;;;9.20;3.90;;;;;;;18.86;100.00;97348.91;5101320;28;20071;-48
2022/11/10 09:23:04;;;;;;;8.50;3.50;;;;;;;18.64;100.00;97364.66;5094079;28;20090;-47
2022/11/10 09:25:32;;;;;;;6.88;3.70;;;;;;;19.77;100.00;97355.34;5093721;28;20173;-47
2022/11/10 09:28:01;;;;;;;6.38;3.50;;;;;;;19.22;100.00;97365.25;5095263;28;20095;-46
2022/11/10 09:30:29;;;;;;;4.70;3.10;;;;;;;19.28;100.00;97369.06;5103558;28;20476;-46
2022/11/10 09:33:00;;;;;;;4.65;3.30;;;;;;;20.12;100.00;97365.38;5098513;28;20350;-49
2022/11/10 09:35:28;;;;;;;6.60;2.90;;;;;;;20.02;100.00;97362.13;5098009;28;20503;-45
2022/11/10 09:37:57;;;;;;;5.65;2.88;;;;;;;20.94;100.00;97359.13;5092259;28;20075;-52
2022/11/10 09:40:30;;;;;;;4.38;2.50;;;;;;;20.33;100.00;97355.78;5098876;28;20076;-48
2022/11/10 09:42:59;;;;;;;5.70;2.72;;;;;;;20.41;100.00;97365.63;5098328;28;20087;-48
2022/11/10 09:45:30;;;;;;;5.73;2.17;;;;;;;19.97;100.00;97377.09;5094959;28;20072;-46
2022/11/10 09:48:11;;;;;;;7.78;1.90;;;;;;;20.67;100.00;97367.84;5080149;28;20074;-47
2022/11/10 09:50:43;;;;;;;4.25;1.50;;;;;;;21.58;100.00;97366.44;5097292;28;20087;-45
2022/11/10 09:53:15;;;;;;;5.40;2.17;;;;;;;22.09;100.00;97368.94;5100761;28;20067;-53
2022/11/10 09:55:45;;;;;;;4.55;1.70;;;;;;;21.78;100.00;97377.34;5095884;28;20086;-53
2022/11/10 09:58:14;;;;;;;4.07;1.83;;;;;;;21.12;100.00;97372.09;5101777;28;20533;-50
2022/11/10 10:00:49;;;;;;;4.00;1.85;;;;;;;21.53;100.00;97375.06;5096232;28;20091;-42
2022/11/10 10:03:23;;;;;;;3.42;1.38;;;;;;;21.41;100.00;97378.47;5093028;28;20083;-46
2022/11/10 10:06:01;;;;;;;3.83;1.45;;;;;;;20.59;100.00;97401.75;5098889;28;20095;-47
2022/11/10 10:08:38;;;;;;;3.55;1.35;;;;;;;21.12;100.00;97392.75;5096532;28;20477;-43
2022/11/10 10:11:16;;;;;;;3.28;1.27;;;;;;;21.15;100.00;97393.19;5093804;28;20470;-48
2022/11/10 10:14:07;;;;;;;5.95;1.35;;;;;;;20.08;100.00;97400.75;5099963;28;20832;-46
2022/11/10 10:16:40;;;;;;;5.72;1.33;;;;;;;20.59;100.00;97399.09;5100839;28;20079;-45
2022/11/10 10:19:19;;;;;;;6.15;1.55;;;;;;;20.97;100.00;97403.50;5097696;28;20560;-44
2022/11/10 10:22:02;;;;;;;4.25;1.17;;;;;;;20.21;100.00;97413.53;5097010;28;20083;-45
2022/11/10 10:24:31;;;;;;;4.60;1.33;;;;;;;20.70;95.01;97405.81;5098444;28;20075;-48
2022/11/10 10:27:03;;;;;;;4.18;1.38;;;;;;;21.45;99.38;97399.34;5096196;28;20107;-43
2022/11/10 10:29:37;;;;;;;5.40;1.30;;;;;;;21.31;98.65;97398.34;5097503;28;20083;-47
2022/11/10 10:32:10;;;;;;;4.50;1.40;;;;;;;21.22;100.00;97401.31;5097272;28;20094;-46
2022/11/10 10:34:40;;;;;;;4.30;1.38;;;;;;;21.04;91.84;97404.41;5096185;28;20592;-48
2022/11/10 10:37:22;;;;;;;6.47;1.52;;;;;;;21.98;80.50;97397.16;5097759;28;20614;-49
2022/11/10 10:39:54;;;;;;;3.78;1.17;;;;;;;21.45;90.62;97402.03;5100043;28;20076;-52
2022/11/10 10:42:30;;;;;;;5.13;1.30;;;;;;;21.63;90.57;97406.13;5097452;28;20083;-46
2022/11/10 10:45:20;;;;;;;2.10;1.10;;;;;;;21.40;75.97;97400.94;5094013;28;20091;-44
2022/11/10 10:47:50;;;;;;;4.20;1.20;;;;;;;21.00;82.12;97409.31;5095782;28;20070;-46
2022/11/10 10:50:26;;;;;;;5.22;1.30;;;;;;;21.17;90.00;97409.13;5097590;28;20191;-42
2022/11/10 10:53:11;;;;;;;8.27;1.38;;;;;;;21.58;78.96;97404.03;5095407;28;20079;-42
2022/11/10 10:55:45;;;;;;;2.15;1.20;;;;;;;21.48;83.37;97409.72;5097361;28;20106;-44
2022/11/10 10:58:25;;;;;;;4.38;1.30;;;;;;;21.33;93.15;97412.41;5092556;28;20079;-44
2022/11/10 11:00:57;;;;;;;4.53;1.33;;;;;;;21.42;78.30;97410.47;5097690;28;20098;-49
2022/11/10 11:03:28;;;;;;;2.20;1.10;;;;;;;20.50;89.79;97423.44;5099026;28;20079;-47
2022/11/10 11:06:04;;;;;;;6.68;1.45;;;;;;;21.14;94.82;97425.59;5096663;28;20090;-50
2022/11/10 11:08:33;;;;;;;7.07;1.67;;;;;;;21.54;84.92;97432.25;5097391;28;20090;-44
2022/11/10 11:11:10;;;;;;;6.03;1.38;;;;;;;23.13;69.57;97422.78;5100495;28;20109;-45
2022/11/10 11:13:38;;;;;;;4.03;1.40;;;;;;;20.82;81.76;97431.16;5096177;28;20094;-50
2022/11/10 11:16:11;;;;;;;4.40;1.52;;;;;;;22.48;67.64;97430.25;5092352;28;20083;-46
2022/11/10 11:18:40;;;;;;;4.20;0.95;;;;;;;21.84;86.93;97440.22;5096597;28;20165;-45
2022/11/10 11:21:17;;;;;;;2.88;1.20;;;;;;;21.67;78.23;97440.44;5098942;28;20090;-46
2022/11/10 11:24:14;;;;;;;4.40;1.20;;;;;;;21.93;91.73;97447.13;5099524;28;20083;-41
2022/11/10 11:26:47;;;;;;;2.80;0.85;;;;;;;21.18;83.21;97448.31;5091358;28;20117;-49
2022/11/10 11:29:29;;;;;;;4.63;1.33;;;;;;;21.21;90.76;97439.91;5096505;28;20082;-42
2022/11/10 11:32:05;;;;;;;3.60;1.15;;;;;;;21.12;79.71;97436.47;5095512;28;20091;-47
2022/11/10 11:34:37;;;;;;;5.00;1.45;;;;;;;20.99;89.30;97442.53;5092883;28;20083;-48
2022/11/10 11:37:15;;;;;;;3.45;1.00;;;;;;;21.16;74.75;97443.13;5097758;28;20075;-49
2022/11/10 11:39:57;;;;;;;5.35;1.30;;;;;;;20.55;75.02;97443.34;5092482;28;20064;-44
2022/11/10 11:42:39;;;;;;;4.43;1.33;;;;;;;21.13;67.04;97442.69;5096325;28;20086;-46
2022/11/10 11:45:17;;;;;;;5.13;1.20;;;;;;;21.80;74.31;97437.09;5091973;28;20079;-42
2022/11/10 11:48:00;;;;;;;3.95;1.00;;;;;;;21.72;65.67;97435.34;5101258;28;20086;-44
2022/11/10 11:50:30;;;;;;;4.28;0.93;;;;;;;21.80;65.03;97431.72;5098745;27;20098;-53
2022/11/10 11:53:07;;;;;;;3.80;1.20;;;;;;;22.24;63.28;97431.50;5099634;28;20086;-50
2022/11/10 11:55:48;;;;;;;3.58;0.80;;;;;;;21.49;64.39;97429.31;5097277;28;20180;-45
2022/11/10 11:58:31;;;;;;;5.30;1.10;;;;;;;21.20;66.79;97428.34;5096373;28;20122;-43